PDT,Max TemperatureF,Mean TemperatureF,Min TemperatureF,Max Dew PointF,MeanDew PointF,Min DewpointF,Max Humidity, Mean Humidity, Min Humidity, Max Sea Level PressureIn, Mean Sea Level PressureIn, Min Sea Level PressureIn, Max VisibilityMiles, Mean VisibilityMiles, Min VisibilityMiles, Max Wind SpeedMPH, Mean Wind SpeedMPH, Max Gust SpeedMPH,PrecipitationIn, CloudCover, Events, WindDirDegrees
2011-10-1,62,56,50,46,41,33,83,58,39,29.99,29.93,29.82,10,10,10,18,10,26,0.00,1,,166
2011-10-2,61,54,48,46,44,41,87,70,49,30.18,30.03,29.94,10,10,10,16,8,26,0.00,2,,159
2011-10-3,53,48,42,47,44,41,93,80,71,30.07,29.93,29.84,10,10,9,15,7,22,0.00,6,,163
2011-10-4,48,44,39,43,39,31,100,86,56,29.96,29.86,29.67,10,5,0,26,10,38,0.60,8,Fog-Rain,172
2011-10-5,42,38,33,41,36,32,100,96,81,29.81,29.70,29.50,10,2,0,26,15,43,1.93,8,Fog-Rain-Snow,188
2011-10-6,41,36,32,37,33,27,100,91,62,30.07,29.90,29.81,10,4,0,8,1,,0.66,6,Fog-Snow,201
2011-10-7,53,45,37,43,35,27,83,66,47,30.14,30.10,30.04,10,10,10,7,3,,0.00,0,,353
2011-10-8,60,53,46,48,38,31,86,60,42,30.10,30.05,29.98,10,10,10,8,6,,0.00,0,,13
2011-10-9,59,52,46,44,37,30,77,56,43,30.03,29.98,29.93,10,10,10,8,4,,0.00,1,,145
2011-10-10,51,48,44,50,44,34,100,89,52,30.09,30.01,29.90,10,3,0,12,7,21,1.46,8,Fog-Rain,148
2011-10-11,59,54,48,50,47,19,100,83,24,30.22,30.11,29.99,10,6,0,12,7,18,0.15,5,Fog-Rain,166
2011-10-12,72,63,55,45,16,-10,47,18,6,30.09,30.03,29.96,10,10,7,6,3,,0.00,0,,45
2011-10-13,71,67,63,47,33,7,56,33,10,29.96,29.91,29.86,10,10,10,8,2,,0.00,0,,142
2011-10-14,72,67,63,48,41,37,56,41,32,29.87,29.85,29.83,10,10,10,9,4,,0.00,0,,139
2011-10-15,70,64,59,50,42,37,69,46,33,29.92,29.88,29.84,10,10,10,8,4,,0.00,0,,153
2011-10-16,64,60,55,48,42,35,70,52,41,30.10,30.01,29.90,10,10,10,12,5,17,0.00,2,,149
2011-10-17,72,64,57,47,37,31,49,37,28,30.13,30.07,30.02,10,10,6,6,3,,0.00,0,,53
2011-10-18,71,65,60,45,37,29,54,38,27,30.06,30.00,29.92,10,10,10,10,3,,0.00,0,,149
2011-10-19,64,60,55,47,40,31,67,51,37,29.96,29.93,29.87,10,10,10,9,3,,0.00,1,,17
2011-10-20,64,58,54,48,40,32,75,51,36,30.18,29.98,29.91,10,9,2,6,3,,0.00,0,,149
2011-10-21,66,60,54,44,33,18,69,40,20,30.13,30.10,30.04,10,10,10,9,2,20,0.00,0,,24
2011-10-22,75,66,60,49,30,20,52,28,18,30.10,30.05,29.96,10,10,5,8,5,,0.00,0,,36
2011-10-23,69,64,60,41,29,15,49,29,15,29.99,29.96,29.93,10,10,10,13,3,,0.00,0,,143
2011-10-24,61,56,51,40,30,15,61,39,17,29.97,29.94,29.91,10,10,10,12,5,,0.00,0,,156
2011-10-25,57,50,42,43,35,15,86,59,34,30.11,30.00,29.94,10,10,4,14,4,30,0.14,1,Rain,108
2011-10-26,60,48,39,21,9,-1,32,21,12,30.17,30.07,30.01,10,10,10,16,9,37,0.00,0,,62
2011-10-27,55,50,44,37,20,-5,59,34,10,30.06,30.03,29.99,10,10,8,5,2,,0.00,0,,56
2011-10-28,60,54,48,35,31,25,56,43,30,30.13,30.10,30.05,10,10,10,6,1,,0.00,0,,85
2011-10-29,66,60,54,41,23,9,48,26,11,30.12,30.08,30.03,10,10,10,9,4,18,0.00,0,,15
2011-10-30,64,60,55,41,28,19,51,32,22,30.10,30.06,30.03,10,10,10,7,4,,0.00,0,,94
2011-10-31,64,58,52,45,36,25,77,47,26,30.05,30.00,29.96,10,10,4,7,2,,0.00,0,,178